createdAt,value
2022-07-27T00:01:06.031Z,56.61
2022-07-27T00:03:32.196Z,56.47
2022-07-27T00:05:58.370Z,56.50
2022-07-27T00:08:24.543Z,56.69
2022-07-27T00:10:50.679Z,56.71
2022-07-27T00:13:16.821Z,56.55
2022-07-27T00:15:42.981Z,56.75
2022-07-27T00:18:09.115Z,56.84
2022-07-27T00:20:35.279Z,57.03
2022-07-27T00:23:01.422Z,57.08
2022-07-27T00:25:27.833Z,57.11
2022-07-27T00:27:54.039Z,57.28
2022-07-27T00:30:20.165Z,57.29
2022-07-27T00:32:46.289Z,57.55
2022-07-27T00:35:12.448Z,57.69
2022-07-27T00:37:38.585Z,57.77
2022-07-27T00:40:04.747Z,57.47
2022-07-27T00:42:30.918Z,57.48
2022-07-27T00:44:57.063Z,57.90
2022-07-27T00:47:23.191Z,57.87
2022-07-27T00:49:49.342Z,58.02
2022-07-27T00:52:15.477Z,57.94
2022-07-27T00:54:41.619Z,58.35
2022-07-27T00:57:07.774Z,58.37
2022-07-27T00:59:33.918Z,58.45
2022-07-27T01:02:00.177Z,58.22
2022-07-27T01:04:26.415Z,58.49
2022-07-27T01:06:52.574Z,58.56
2022-07-27T01:09:18.726Z,58.42
2022-07-27T01:11:44.877Z,58.68
2022-07-27T01:14:11.017Z,58.75
2022-07-27T01:16:37.236Z,58.62
2022-07-27T01:19:03.446Z,58.84
2022-07-27T01:21:34.103Z,59.04
2022-07-27T01:24:00.350Z,58.79
2022-07-27T01:26:26.503Z,58.79
2022-07-27T01:28:52.639Z,59.38
2022-07-27T01:31:18.856Z,59.45
2022-07-27T01:33:45.025Z,59.59
2022-07-27T01:36:11.155Z,59.48
2022-07-27T01:38:37.278Z,59.60
2022-07-27T01:41:03.819Z,59.69
2022-07-27T01:43:29.951Z,59.60
2022-07-27T01:45:56.247Z,59.49
2022-07-27T01:48:22.500Z,59.38
2022-07-27T01:50:48.841Z,59.55
2022-07-27T01:53:14.980Z,59.56
2022-07-27T01:55:41.144Z,59.55
2022-07-27T01:58:07.341Z,59.82
2022-07-27T02:00:33.528Z,59.60
2022-07-27T02:02:59.690Z,59.81
2022-07-27T02:05:25.977Z,59.90
2022-07-27T02:07:52.256Z,59.97
2022-07-27T02:10:18.402Z,60.38
2022-07-27T02:12:44.530Z,60.23
2022-07-27T02:15:15.084Z,60.66
2022-07-27T02:17:41.765Z,61.05
2022-07-27T02:20:08.025Z,61.05
2022-07-27T02:22:34.152Z,61.07
2022-07-27T02:25:00.303Z,61.29
2022-07-27T02:27:26.438Z,61.27
2022-07-27T02:29:52.590Z,61.01
2022-07-27T02:32:19.031Z,61.12
2022-07-27T02:34:45.157Z,61.12
2022-07-27T02:37:11.312Z,61.33
2022-07-27T02:39:37.464Z,61.36
2022-07-27T02:42:03.598Z,61.54
2022-07-27T02:44:29.756Z,61.32
2022-07-27T02:46:56.440Z,61.24
2022-07-27T02:49:22.996Z,61.67
2022-07-27T02:51:49.221Z,61.37
2022-07-27T02:54:15.388Z,61.54
2022-07-27T02:56:41.518Z,61.65
2022-07-27T02:59:07.677Z,61.82
2022-07-27T03:01:33.873Z,61.69
2022-07-27T03:04:00.148Z,61.59
2022-07-27T03:06:26.325Z,61.88
2022-07-27T03:08:52.497Z,61.85
2022-07-27T03:11:18.654Z,62.11
2022-07-27T03:13:44.840Z,61.98
2022-07-27T03:16:11.043Z,61.87
2022-07-27T03:18:37.238Z,61.84
2022-07-27T03:21:03.402Z,61.91
2022-07-27T03:23:29.564Z,62.17
2022-07-27T03:25:55.728Z,62.32
2022-07-27T03:28:21.885Z,62.42
2022-07-27T03:30:48.133Z,62.54
2022-07-27T03:33:14.302Z,62.63
2022-07-27T03:35:40.427Z,62.58
2022-07-27T03:38:06.636Z,62.63
2022-07-27T03:40:32.948Z,62.72
2022-07-27T03:42:59.185Z,62.37
2022-07-27T03:45:25.374Z,62.52
2022-07-27T03:47:51.509Z,62.98
2022-07-27T03:50:17.639Z,63.01
2022-07-27T03:52:45.685Z,63.00
2022-07-27T03:55:12.038Z,62.72
2022-07-27T03:57:38.170Z,63.08
2022-07-27T04:00:04.313Z,62.95
2022-07-27T04:02:30.525Z,63.29
2022-07-27T04:04:56.714Z,63.21
2022-07-27T04:07:22.875Z,63.33
2022-07-27T04:09:48.995Z,63.06
2022-07-27T04:12:16.678Z,63.16
2022-07-27T04:14:46.044Z,63.36
2022-07-27T04:17:12.204Z,63.12
2022-07-27T04:19:58.305Z,63.37
2022-07-27T04:22:24.482Z,63.59
2022-07-27T04:24:50.622Z,63.63
2022-07-27T04:27:16.789Z,63.51
2022-07-27T04:29:42.993Z,63.53
2022-07-27T04:32:09.134Z,63.82
2022-07-27T04:34:35.294Z,64.00
2022-07-27T04:37:01.431Z,63.67
2022-07-27T04:39:27.574Z,64.12
2022-07-27T04:41:53.729Z,64.19
2022-07-27T04:44:19.858Z,63.92
2022-07-27T04:46:45.994Z,63.99
2022-07-27T04:49:13.152Z,63.99
2022-07-27T04:51:39.562Z,64.28
2022-07-27T04:54:05.681Z,64.29
2022-07-27T04:56:31.850Z,64.28
2022-07-27T04:58:57.985Z,64.17
2022-07-27T05:01:24.169Z,64.12
2022-07-27T05:03:50.498Z,64.24
2022-07-27T05:06:16.681Z,63.97
2022-07-27T05:08:42.835Z,64.38
2022-07-27T05:11:08.996Z,64.36
2022-07-27T05:13:35.126Z,64.12
2022-07-27T05:16:01.323Z,64.08
2022-07-27T05:18:27.569Z,64.46
2022-07-27T05:20:53.796Z,64.77
2022-07-27T05:23:19.948Z,64.72
2022-07-27T05:25:46.101Z,64.44
2022-07-27T05:28:12.259Z,64.84
2022-07-27T05:30:38.431Z,64.65
2022-07-27T05:33:04.585Z,64.59
2022-07-27T05:35:30.718Z,65.09
2022-07-27T05:37:56.882Z,65.15
2022-07-27T05:40:23.034Z,65.21
2022-07-27T05:42:49.184Z,65.25
2022-07-27T05:45:15.309Z,65.01
2022-07-27T05:47:41.732Z,65.26
2022-07-27T05:50:07.864Z,65.08
2022-07-27T05:52:34.008Z,65.44
2022-07-27T05:55:00.171Z,65.13
2022-07-27T05:57:26.290Z,65.23
2022-07-27T05:59:52.422Z,65.16
2022-07-27T06:02:18.573Z,65.48
2022-07-27T06:04:44.701Z,65.43
2022-07-27T06:07:10.837Z,65.59
2022-07-27T06:09:36.977Z,65.58
2022-07-27T06:12:03.107Z,65.44
2022-07-27T06:14:29.235Z,65.49
2022-07-27T06:16:55.432Z,65.19
2022-07-27T06:19:21.583Z,65.28
2022-07-27T06:21:53.465Z,65.43
2022-07-27T06:24:20.059Z,64.97
2022-07-27T06:26:46.197Z,64.76
2022-07-27T06:29:12.767Z,64.67
2022-07-27T06:31:39.119Z,64.33
2022-07-27T06:34:11.701Z,63.87
2022-07-27T06:36:38.123Z,63.78
2022-07-27T06:39:04.274Z,63.53
2022-07-27T06:41:30.407Z,63.18
2022-07-27T06:43:56.534Z,62.60
2022-07-27T06:46:22.741Z,62.32
2022-07-27T06:48:48.956Z,62.23
2022-07-27T06:51:15.115Z,61.81
2022-07-27T06:53:41.257Z,61.93
2022-07-27T06:56:07.544Z,61.48
2022-07-27T06:58:33.697Z,61.58
2022-07-27T07:00:59.939Z,61.25
2022-07-27T07:03:26.319Z,60.83
2022-07-27T07:05:52.474Z,60.82
2022-07-27T07:08:18.622Z,60.82
2022-07-27T07:10:44.801Z,60.38
2022-07-27T07:13:10.987Z,60.24
2022-07-27T07:15:37.146Z,59.93
2022-07-27T07:18:03.283Z,59.76
2022-07-27T07:20:29.429Z,59.45
2022-07-27T07:22:55.573Z,59.13
2022-07-27T07:25:21.697Z,58.66
2022-07-27T07:27:48.012Z,58.58
2022-07-27T07:30:14.192Z,58.43
2022-07-27T07:32:40.346Z,58.17
2022-07-27T07:35:06.470Z,58.22
2022-07-27T07:37:33.868Z,57.77
2022-07-27T07:40:18.330Z,57.60
2022-07-27T07:42:46.525Z,57.42
2022-07-27T07:45:12.681Z,57.12
2022-07-27T07:47:38.810Z,56.73
2022-07-27T07:50:04.976Z,56.20
2022-07-27T07:52:31.122Z,55.65
2022-07-27T07:54:57.255Z,55.35
2022-07-27T07:57:23.760Z,55.31
2022-07-27T07:59:49.900Z,55.10
2022-07-27T08:02:16.070Z,55.13
2022-07-27T08:04:42.323Z,54.99
2022-07-27T08:07:08.459Z,54.45
2022-07-27T08:09:34.598Z,52.75
2022-07-27T08:12:02.494Z,52.19
2022-07-27T08:14:28.622Z,52.01
2022-07-27T08:16:54.759Z,51.57
2022-07-27T08:19:20.901Z,51.40
2022-07-27T08:21:47.039Z,51.05
2022-07-27T08:24:13.193Z,50.98
2022-07-27T08:26:39.350Z,51.27
2022-07-27T08:29:11.180Z,51.81
2022-07-27T08:31:52.354Z,52.10
2022-07-27T08:34:19.443Z,52.05
2022-07-27T08:36:45.609Z,51.81
2022-07-27T08:39:31.798Z,51.80
2022-07-27T08:41:57.879Z,51.56
2022-07-27T08:44:24.030Z,51.31
2022-07-27T08:46:50.213Z,51.07
2022-07-27T08:49:17.140Z,50.85
2022-07-27T08:51:47.065Z,50.68
2022-07-27T08:54:13.565Z,50.91
2022-07-27T08:56:40.013Z,50.70
2022-07-27T08:59:06.150Z,50.75
2022-07-27T09:01:32.320Z,51.01
2022-07-27T09:03:58.499Z,50.48
2022-07-27T09:06:24.638Z,50.33
2022-07-27T09:08:53.341Z,49.92
2022-07-27T09:11:19.632Z,49.24
2022-07-27T09:13:45.767Z,48.88
2022-07-27T09:16:18.162Z,48.49
2022-07-27T09:18:45.155Z,47.98
2022-07-27T09:21:11.294Z,47.41
2022-07-27T09:23:37.456Z,47.36
2022-07-27T09:26:10.885Z,47.23
2022-07-27T09:28:40.712Z,46.72
2022-07-27T09:31:06.906Z,46.74
2022-07-27T09:33:33.075Z,46.80
2022-07-27T09:35:59.985Z,46.89
2022-07-27T09:38:26.149Z,46.89
2022-07-27T09:40:52.307Z,46.92
2022-07-27T09:44:12.327Z,46.99
2022-07-27T09:46:07.737Z,46.67
2022-07-27T09:48:33.969Z,46.34
2022-07-27T09:51:02.632Z,46.09
2022-07-27T09:53:42.889Z,45.99
2022-07-27T09:56:09.682Z,45.89
2022-07-27T09:58:35.853Z,45.56
2022-07-27T10:01:02.007Z,45.13
2022-07-27T10:03:28.146Z,45.14
2022-07-27T10:05:54.383Z,44.30
2022-07-27T10:08:20.526Z,44.37
2022-07-27T10:10:46.653Z,43.77
2022-07-27T10:13:12.813Z,43.32
2022-07-27T10:15:39.007Z,43.52
2022-07-27T10:18:07.326Z,43.85
2022-07-27T10:20:33.902Z,43.63
2022-07-27T10:23:00.042Z,43.90
2022-07-27T10:25:26.240Z,44.14
2022-07-27T10:27:52.403Z,44.41
2022-07-27T10:30:24.099Z,44.67
2022-07-27T10:32:53.927Z,44.63
2022-07-27T10:35:20.068Z,44.81
2022-07-27T10:37:46.207Z,44.87
2022-07-27T10:40:12.437Z,44.66
2022-07-27T10:42:38.622Z,44.72
2022-07-27T10:45:04.783Z,43.83
2022-07-27T10:47:30.942Z,43.58
2022-07-27T10:49:57.078Z,43.65
2022-07-27T10:52:23.235Z,43.31
2022-07-27T10:54:52.777Z,43.20
2022-07-27T10:57:22.966Z,43.08
2022-07-27T11:02:35.252Z,42.72
2022-07-27T11:05:01.400Z,43.15
2022-07-27T11:07:35.563Z,42.67
2022-07-27T11:10:10.151Z,42.35
2022-07-27T11:12:36.281Z,41.92
2022-07-27T11:15:02.446Z,41.93
2022-07-27T11:20:14.704Z,41.39
2022-07-27T11:25:26.983Z,40.82
2022-07-27T11:27:53.120Z,40.96
2022-07-27T11:30:19.274Z,41.21
2022-07-27T11:32:45.409Z,41.10
2022-07-27T11:35:16.308Z,41.33
2022-07-27T11:37:45.459Z,41.32
2022-07-27T11:40:37.451Z,41.52
2022-07-27T11:42:57.727Z,41.37
2022-07-27T11:45:25.115Z,41.15
2022-07-27T11:47:51.241Z,40.99
2022-07-27T11:50:17.390Z,41.12
2022-07-27T11:52:43.530Z,40.87
2022-07-27T11:55:09.677Z,40.74
2022-07-27T11:57:40.258Z,40.17
2022-07-27T12:00:06.458Z,40.25
2022-07-27T12:02:32.693Z,40.15
2022-07-27T12:05:02.962Z,40.05
2022-07-27T12:07:29.552Z,40.12
2022-07-27T12:09:55.685Z,39.90
2022-07-27T12:12:21.819Z,39.60
2022-07-27T12:14:47.993Z,39.19
2022-07-27T12:17:14.179Z,38.82
2022-07-27T12:19:40.378Z,38.37
2022-07-27T12:22:06.521Z,38.23
2022-07-27T12:24:32.651Z,38.15
2022-07-27T12:27:01.964Z,38.11
2022-07-27T12:29:32.167Z,37.96
2022-07-27T12:31:58.319Z,37.99
2022-07-27T12:34:24.464Z,37.73
2022-07-27T12:36:50.599Z,37.82
2022-07-27T12:39:16.732Z,37.66
2022-07-27T12:41:42.872Z,37.56
2022-07-27T12:44:09.028Z,37.96
2022-07-27T12:46:35.476Z,38.20
2022-07-27T12:49:01.726Z,38.18
2022-07-27T12:51:27.884Z,38.30
2022-07-27T12:53:54.018Z,38.47
2022-07-27T12:56:27.235Z,38.42
2022-07-27T12:58:53.937Z,38.01
2022-07-27T13:01:20.120Z,37.93
2022-07-27T13:03:46.355Z,37.75
2022-07-27T13:06:13.278Z,37.29
2022-07-27T13:08:39.492Z,37.03
2022-07-27T13:11:05.742Z,37.06
2022-07-27T13:13:31.882Z,36.82
2022-07-27T13:15:58.018Z,36.79
2022-07-27T13:18:24.352Z,36.65
2022-07-27T13:20:50.549Z,36.78
2022-07-27T13:23:16.702Z,36.63
2022-07-27T13:25:43.537Z,37.00
2022-07-27T13:28:09.817Z,37.39
2022-07-27T13:30:35.955Z,37.07
2022-07-27T13:33:02.114Z,37.03
2022-07-27T13:35:28.247Z,36.91
2022-07-27T13:37:54.411Z,36.73
2022-07-27T13:40:20.578Z,36.62
2022-07-27T13:42:46.711Z,36.46
2022-07-27T13:45:12.852Z,36.28
2022-07-27T13:47:39.022Z,36.27
2022-07-27T13:50:05.204Z,36.06
2022-07-27T13:52:31.359Z,35.93
2022-07-27T13:54:57.508Z,35.76
2022-07-27T13:57:23.634Z,35.59
2022-07-27T13:59:49.776Z,35.87
2022-07-27T14:02:16.017Z,36.17
2022-07-27T14:04:46.712Z,35.69
2022-07-27T14:07:12.849Z,35.09
2022-07-27T14:09:38.999Z,35.10
2022-07-27T14:12:05.142Z,35.06
2022-07-27T14:14:31.268Z,34.46
2022-07-27T14:16:57.993Z,34.55
2022-07-27T14:19:24.208Z,34.43
2022-07-27T14:21:50.367Z,34.37
2022-07-27T14:24:16.514Z,34.09
2022-07-27T14:26:42.640Z,34.50
2022-07-27T14:29:08.763Z,35.00
2022-07-27T14:31:34.987Z,34.82
2022-07-27T14:34:01.200Z,35.03
2022-07-27T14:36:27.349Z,34.95
2022-07-27T14:38:53.510Z,34.84
2022-07-27T14:41:19.659Z,34.93
2022-07-27T14:43:45.798Z,35.15
2022-07-27T14:46:12.044Z,34.99
2022-07-27T14:49:04.688Z,34.92
2022-07-27T14:51:24.390Z,34.71
2022-07-27T14:53:50.527Z,34.79
2022-07-27T14:56:16.652Z,34.95
2022-07-27T14:58:42.847Z,34.92
2022-07-27T15:01:09.080Z,34.82
2022-07-27T15:03:35.236Z,33.89
2022-07-27T15:06:02.009Z,33.89
2022-07-27T15:08:28.125Z,33.52
2022-07-27T15:10:54.262Z,32.60
2022-07-27T15:13:20.420Z,32.29
2022-07-27T15:15:46.568Z,31.68
2022-07-27T15:18:13.013Z,31.46
2022-07-27T15:20:39.667Z,31.30
2022-07-27T15:23:05.815Z,31.63
2022-07-27T15:25:31.962Z,31.94
2022-07-27T15:27:58.111Z,32.15
2022-07-27T15:30:24.258Z,32.78
2022-07-27T15:32:50.402Z,33.37
2022-07-27T15:35:16.568Z,33.31
2022-07-27T15:37:42.697Z,33.08
2022-07-27T15:40:20.641Z,32.99
2022-07-27T15:42:46.778Z,33.36
2022-07-27T15:45:12.975Z,33.41
2022-07-27T15:47:39.698Z,33.59
2022-07-27T15:50:06.038Z,33.67
2022-07-27T15:52:32.183Z,33.72
2022-07-27T15:54:58.334Z,33.42
2022-07-27T15:57:24.469Z,33.54
2022-07-27T15:59:50.595Z,33.47
2022-07-27T16:02:16.746Z,33.10
2022-07-27T16:04:50.835Z,32.96
2022-07-27T16:07:16.985Z,32.56
2022-07-27T16:09:43.662Z,31.46
2022-07-27T16:12:09.807Z,31.36
2022-07-27T16:14:35.926Z,31.53
2022-07-27T16:17:02.086Z,31.63
2022-07-27T16:19:28.222Z,31.53
2022-07-27T16:21:56.011Z,30.77
2022-07-27T16:24:22.313Z,30.10
2022-07-27T16:26:48.482Z,29.43
2022-07-27T16:29:14.954Z,28.97
2022-07-27T16:31:41.549Z,28.99
2022-07-27T16:34:07.782Z,28.99
2022-07-27T16:36:38.421Z,28.61
2022-07-27T16:39:05.494Z,28.16
2022-07-27T16:41:31.944Z,27.95
2022-07-27T16:43:58.087Z,27.35
2022-07-27T16:46:24.315Z,27.93
2022-07-27T16:48:50.512Z,27.97
2022-07-27T16:51:16.684Z,28.48
2022-07-27T16:53:42.876Z,28.54
2022-07-27T16:56:09.022Z,28.64
2022-07-27T16:58:35.162Z,28.80
2022-07-27T17:01:01.302Z,28.84
2022-07-27T17:03:27.441Z,29.07
2022-07-27T17:05:53.660Z,29.17
2022-07-27T17:08:19.856Z,29.24
2022-07-27T17:10:46.224Z,29.40
2022-07-27T17:13:14.428Z,29.66
2022-07-27T17:15:40.612Z,30.17
2022-07-27T17:18:06.836Z,30.64
2022-07-27T17:20:35.381Z,31.01
2022-07-27T17:23:01.973Z,31.36
2022-07-27T17:25:28.142Z,31.72
2022-07-27T17:27:54.299Z,31.89
2022-07-27T17:30:20.463Z,32.03
2022-07-27T17:32:46.619Z,32.38
2022-07-27T17:35:12.756Z,32.51
2022-07-27T17:38:04.471Z,32.62
2022-07-27T17:40:25.476Z,32.78
2022-07-27T17:42:51.715Z,32.44
2022-07-27T17:45:17.850Z,31.71
2022-07-27T17:47:43.995Z,31.39
2022-07-27T17:50:10.138Z,30.37
2022-07-27T17:52:38.356Z,30.20
2022-07-27T17:55:04.721Z,29.83
2022-07-27T17:57:30.877Z,29.26
2022-07-27T17:59:57.006Z,29.29
2022-07-27T18:02:23.213Z,29.65
2022-07-27T18:04:49.497Z,30.50
2022-07-27T18:07:15.702Z,31.43
2022-07-27T18:09:41.834Z,31.54
2022-07-27T18:12:08.813Z,31.54
2022-07-27T18:14:34.933Z,31.55
2022-07-27T18:17:04.606Z,31.93
2022-07-27T18:19:30.766Z,32.44
2022-07-27T18:21:56.907Z,32.53
2022-07-27T18:24:23.042Z,33.10
2022-07-27T18:26:49.333Z,33.31
2022-07-27T18:29:17.495Z,33.51
2022-07-27T18:31:43.705Z,33.65
2022-07-27T18:34:12.870Z,33.50
2022-07-27T18:36:39.283Z,33.81
2022-07-27T18:39:05.428Z,33.56
2022-07-27T18:41:31.587Z,33.53
2022-07-27T18:43:57.727Z,33.47
2022-07-27T18:46:23.952Z,33.42
2022-07-27T18:48:50.228Z,33.70
2022-07-27T18:51:16.431Z,33.86
2022-07-27T18:53:42.574Z,34.08
2022-07-27T18:56:08.734Z,34.29
2022-07-27T18:58:34.878Z,34.59
2022-07-27T19:01:01.014Z,34.72
2022-07-27T19:03:27.865Z,35.18
2022-07-27T19:05:54.195Z,35.41
2022-07-27T19:08:20.818Z,35.67
2022-07-27T19:10:46.966Z,35.74
2022-07-27T19:13:13.110Z,36.00
2022-07-27T19:15:39.248Z,36.14
2022-07-27T19:18:06.195Z,36.41
2022-07-27T19:20:32.335Z,36.70
2022-07-27T19:22:58.471Z,36.93
2022-07-27T19:25:24.632Z,37.08
2022-07-27T19:27:50.769Z,37.33
2022-07-27T19:30:16.903Z,37.81
2022-07-27T19:32:44.398Z,38.35
2022-07-27T19:35:10.541Z,38.68
2022-07-27T19:37:36.671Z,38.97
2022-07-27T19:40:20.216Z,39.02
2022-07-27T19:42:48.954Z,39.60
2022-07-27T19:45:15.098Z,39.85
2022-07-27T19:47:41.253Z,39.84
2022-07-27T19:50:07.435Z,40.16
2022-07-27T19:52:33.610Z,40.35
2022-07-27T19:54:59.764Z,40.63
2022-07-27T19:57:25.898Z,40.91
2022-07-27T19:59:55.075Z,40.91
2022-07-27T20:02:22.819Z,41.18
2022-07-27T20:04:49.008Z,41.46
2022-07-27T20:07:15.304Z,41.44
2022-07-27T20:09:41.486Z,41.76
2022-07-27T20:12:07.673Z,42.04
2022-07-27T20:14:33.847Z,42.04
2022-07-27T20:17:00.058Z,42.33
2022-07-27T20:19:26.205Z,42.49
2022-07-27T20:21:52.352Z,42.92
2022-07-27T20:24:18.482Z,43.30
2022-07-27T20:26:48.931Z,43.49
2022-07-27T20:29:15.777Z,43.77
2022-07-27T20:31:42.171Z,43.87
2022-07-27T20:34:08.289Z,43.93
2022-07-27T20:36:34.603Z,44.11
2022-07-27T20:39:00.741Z,44.46
2022-07-27T20:41:26.880Z,44.37
2022-07-27T20:43:53.737Z,44.70
2022-07-27T20:46:19.957Z,44.78
2022-07-27T20:48:46.225Z,45.02
2022-07-27T20:51:12.425Z,45.25
2022-07-27T20:53:38.553Z,45.64
2022-07-27T20:56:04.685Z,45.58
2022-07-27T20:58:30.828Z,45.92
2022-07-27T21:00:57.006Z,46.21
2022-07-27T21:03:23.164Z,46.28
2022-07-27T21:05:49.335Z,46.25
2022-07-27T21:08:15.475Z,46.49
2022-07-27T21:10:41.607Z,46.73
2022-07-27T21:13:07.769Z,46.74
2022-07-27T21:15:34.411Z,47.24
2022-07-27T21:18:00.638Z,47.39
2022-07-27T21:20:26.795Z,47.64
2022-07-27T21:22:52.916Z,47.64
2022-07-27T21:25:19.054Z,47.91
2022-07-27T21:27:45.205Z,48.22
2022-07-27T21:30:13.307Z,48.15
2022-07-27T21:32:39.440Z,48.21
2022-07-27T21:35:07.289Z,48.50
2022-07-27T21:37:33.608Z,48.68
2022-07-27T21:39:59.739Z,48.58
2022-07-27T21:42:25.893Z,48.86
2022-07-27T21:44:52.015Z,48.95
2022-07-27T21:47:18.136Z,49.19
2022-07-27T21:49:44.290Z,49.15
2022-07-27T21:52:10.414Z,49.16
2022-07-27T21:54:36.540Z,49.30
2022-07-27T21:57:02.690Z,49.30
2022-07-27T21:59:28.823Z,49.63
2022-07-27T22:01:54.957Z,49.96
2022-07-27T22:04:21.177Z,50.04
2022-07-27T22:06:47.337Z,49.95
2022-07-27T22:09:13.474Z,50.32
2022-07-27T22:11:39.623Z,50.26
2022-07-27T22:14:05.743Z,50.66
2022-07-27T22:16:31.975Z,50.32
2022-07-27T22:18:58.171Z,50.72
2022-07-27T22:21:26.131Z,50.96
2022-07-27T22:23:52.279Z,50.85
2022-07-27T22:26:18.439Z,51.10
2022-07-27T22:28:44.592Z,51.19
2022-07-27T22:31:22.871Z,51.23
2022-07-27T22:33:49.498Z,51.50
2022-07-27T22:36:15.638Z,51.46
2022-07-27T22:38:41.798Z,51.98
2022-07-27T22:41:08.014Z,51.90
2022-07-27T22:43:34.154Z,51.86
2022-07-27T22:46:00.354Z,52.00
2022-07-27T22:48:26.550Z,52.27
2022-07-27T22:50:52.693Z,52.24
2022-07-27T22:53:18.849Z,52.38
2022-07-27T22:55:44.998Z,52.78
2022-07-27T22:58:11.129Z,52.63
2022-07-27T23:00:37.310Z,53.18
2022-07-27T23:03:03.517Z,53.23
2022-07-27T23:05:29.690Z,53.20
2022-07-27T23:07:55.835Z,53.30
2022-07-27T23:10:22.016Z,53.43
2022-07-27T23:12:48.162Z,53.60
2022-07-27T23:15:14.316Z,53.78
2022-07-27T23:17:40.479Z,53.64
2022-07-27T23:20:06.610Z,53.98
2022-07-27T23:22:32.735Z,54.05
2022-07-27T23:25:00.518Z,54.25
2022-07-27T23:27:26.807Z,54.25
2022-07-27T23:29:52.942Z,54.38
2022-07-27T23:32:19.115Z,54.65
2022-07-27T23:34:45.258Z,54.62
2022-07-27T23:37:11.406Z,54.68
2022-07-27T23:39:37.559Z,54.76
2022-07-27T23:42:03.696Z,55.07
2022-07-27T23:44:29.848Z,55.08
2022-07-27T23:46:56.394Z,55.11
2022-07-27T23:49:22.592Z,55.48
2022-07-27T23:51:48.805Z,55.56
2022-07-27T23:54:15.394Z,55.68
2022-07-27T23:56:41.818Z,55.59
2022-07-27T23:59:07.955Z,55.52
